sensor_id;sensor_type;location;lat;lon;timestamp;P1;durP1;ratioP1;P2;durP2;ratioP2
17251;SDS011;8742;51.716;8.790;2023-07-29T00:01:19;2.90;;;2.10;;
17251;SDS011;8742;51.716;8.790;2023-07-29T00:03:46;2.70;;;2.50;;
17251;SDS011;8742;51.716;8.790;2023-07-29T00:06:13;2.63;;;2.37;;
17251;SDS011;8742;51.716;8.790;2023-07-29T00:08:40;3.20;;;2.40;;
17251;SDS011;8742;51.716;8.790;2023-07-29T00:11:07;3.17;;;2.50;;
17251;SDS011;8742;51.716;8.790;2023-07-29T00:13:34;4.47;;;2.50;;
17251;SDS011;8742;51.716;8.790;2023-07-29T00:16:00;4.93;;;2.60;;
17251;SDS011;8742;51.716;8.790;2023-07-29T00:18:29;2.77;;;2.57;;
17251;SDS011;8742;51.716;8.790;2023-07-29T00:20:56;2.87;;;2.43;;
17251;SDS011;8742;51.716;8.790;2023-07-29T00:23:23;2.47;;;2.27;;
17251;SDS011;8742;51.716;8.790;2023-07-29T00:25:49;2.57;;;2.27;;
17251;SDS011;8742;51.716;8.790;2023-07-29T00:28:16;2.83;;;2.23;;
17251;SDS011;8742;51.716;8.790;2023-07-29T00:30:43;2.30;;;2.10;;
17251;SDS011;8742;51.716;8.790;2023-07-29T00:33:10;2.33;;;2.13;;
17251;SDS011;8742;51.716;8.790;2023-07-29T00:35:38;2.43;;;2.23;;
17251;SDS011;8742;51.716;8.790;2023-07-29T00:38:05;2.03;;;1.63;;
17251;SDS011;8742;51.716;8.790;2023-07-29T00:40:32;2.83;;;2.07;;
17251;SDS011;8742;51.716;8.790;2023-07-29T00:43:02;7.40;;;2.40;;
17251;SDS011;8742;51.716;8.790;2023-07-29T00:45:28;2.33;;;2.13;;
17251;SDS011;8742;51.716;8.790;2023-07-29T00:47:56;2.30;;;2.00;;
17251;SDS011;8742;51.716;8.790;2023-07-29T00:50:23;2.97;;;2.10;;
17251;SDS011;8742;51.716;8.790;2023-07-29T00:52:54;1.97;;;1.80;;
17251;SDS011;8742;51.716;8.790;2023-07-29T00:55:21;5.20;;;2.10;;
17251;SDS011;8742;51.716;8.790;2023-07-29T00:57:48;2.30;;;2.10;;
17251;SDS011;8742;51.716;8.790;2023-07-29T01:00:16;10.37;;;2.00;;
17251;SDS011;8742;51.716;8.790;2023-07-29T01:02:43;3.93;;;2.00;;
17251;SDS011;8742;51.716;8.790;2023-07-29T01:05:11;2.40;;;2.20;;
17251;SDS011;8742;51.716;8.790;2023-07-29T01:07:43;3.23;;;2.40;;
17251;SDS011;8742;51.716;8.790;2023-07-29T01:10:18;2.80;;;2.30;;
17251;SDS011;8742;51.716;8.790;2023-07-29T01:12:55;3.03;;;2.40;;
17251;SDS011;8742;51.716;8.790;2023-07-29T01:15:31;3.27;;;2.13;;
17251;SDS011;8742;51.716;8.790;2023-07-29T01:18:04;2.23;;;1.90;;
17251;SDS011;8742;51.716;8.790;2023-07-29T01:20:32;2.20;;;2.00;;
17251;SDS011;8742;51.716;8.790;2023-07-29T01:23:02;2.20;;;2.03;;
17251;SDS011;8742;51.716;8.790;2023-07-29T01:25:30;3.90;;;1.90;;
17251;SDS011;8742;51.716;8.790;2023-07-29T01:27:57;2.30;;;2.10;;
17251;SDS011;8742;51.716;8.790;2023-07-29T01:30:25;2.17;;;1.93;;
17251;SDS011;8742;51.716;8.790;2023-07-29T01:32:58;2.80;;;1.80;;
17251;SDS011;8742;51.716;8.790;2023-07-29T01:35:31;2.63;;;2.07;;
17251;SDS011;8742;51.716;8.790;2023-07-29T01:38:04;2.67;;;1.87;;
17251;SDS011;8742;51.716;8.790;2023-07-29T01:40:34;2.20;;;1.87;;
17251;SDS011;8742;51.716;8.790;2023-07-29T01:43:02;3.47;;;1.77;;
17251;SDS011;8742;51.716;8.790;2023-07-29T01:45:29;2.10;;;1.90;;
17251;SDS011;8742;51.716;8.790;2023-07-29T01:48:00;1.67;;;1.57;;
17251;SDS011;8742;51.716;8.790;2023-07-29T01:50:27;2.13;;;1.60;;
17251;SDS011;8742;51.716;8.790;2023-07-29T01:52:54;2.20;;;1.97;;
17251;SDS011;8742;51.716;8.790;2023-07-29T01:55:21;2.17;;;1.90;;
17251;SDS011;8742;51.716;8.790;2023-07-29T01:57:49;1.90;;;1.80;;
17251;SDS011;8742;51.716;8.790;2023-07-29T02:00:16;1.70;;;1.60;;
17251;SDS011;8742;51.716;8.790;2023-07-29T02:02:44;1.67;;;1.57;;
17251;SDS011;8742;51.716;8.790;2023-07-29T02:05:11;1.70;;;1.60;;
17251;SDS011;8742;51.716;8.790;2023-07-29T02:07:37;1.60;;;1.50;;
17251;SDS011;8742;51.716;8.790;2023-07-29T02:10:04;2.43;;;1.50;;
17251;SDS011;8742;51.716;8.790;2023-07-29T02:12:32;1.70;;;1.60;;
17251;SDS011;8742;51.716;8.790;2023-07-29T02:15:00;2.33;;;1.77;;
17251;SDS011;8742;51.716;8.790;2023-07-29T02:17:27;3.37;;;1.63;;
17251;SDS011;8742;51.716;8.790;2023-07-29T02:19:54;1.87;;;1.50;;
17251;SDS011;8742;51.716;8.790;2023-07-29T02:22:21;2.27;;;2.07;;
17251;SDS011;8742;51.716;8.790;2023-07-29T02:24:48;6.73;;;2.27;;
17251;SDS011;8742;51.716;8.790;2023-07-29T02:27:15;5.10;;;2.37;;
17251;SDS011;8742;51.716;8.790;2023-07-29T02:29:42;3.37;;;2.03;;
17251;SDS011;8742;51.716;8.790;2023-07-29T02:32:10;4.40;;;1.97;;
17251;SDS011;8742;51.716;8.790;2023-07-29T02:34:37;2.50;;;2.30;;
17251;SDS011;8742;51.716;8.790;2023-07-29T02:37:04;2.17;;;1.87;;
17251;SDS011;8742;51.716;8.790;2023-07-29T02:39:31;2.17;;;1.80;;
17251;SDS011;8742;51.716;8.790;2023-07-29T02:41:58;6.73;;;1.97;;
17251;SDS011;8742;51.716;8.790;2023-07-29T02:44:24;2.20;;;2.03;;
17251;SDS011;8742;51.716;8.790;2023-07-29T02:46:51;3.00;;;2.10;;
17251;SDS011;8742;51.716;8.790;2023-07-29T02:49:22;4.90;;;2.33;;
17251;SDS011;8742;51.716;8.790;2023-07-29T02:51:49;4.27;;;2.50;;
17251;SDS011;8742;51.716;8.790;2023-07-29T02:54:16;5.80;;;2.37;;
17251;SDS011;8742;51.716;8.790;2023-07-29T02:56:42;3.63;;;2.30;;
17251;SDS011;8742;51.716;8.790;2023-07-29T02:59:09;2.30;;;2.10;;
17251;SDS011;8742;51.716;8.790;2023-07-29T03:01:36;2.77;;;2.20;;
17251;SDS011;8742;51.716;8.790;2023-07-29T03:04:03;9.33;;;2.53;;
17251;SDS011;8742;51.716;8.790;2023-07-29T03:06:31;2.60;;;2.10;;
17251;SDS011;8742;51.716;8.790;2023-07-29T03:08:58;3.33;;;2.20;;
17251;SDS011;8742;51.716;8.790;2023-07-29T03:11:25;2.53;;;2.33;;
17251;SDS011;8742;51.716;8.790;2023-07-29T03:13:52;2.97;;;2.13;;
17251;SDS011;8742;51.716;8.790;2023-07-29T03:16:18;3.93;;;2.20;;
17251;SDS011;8742;51.716;8.790;2023-07-29T03:18:46;4.53;;;2.20;;
17251;SDS011;8742;51.716;8.790;2023-07-29T03:21:14;7.20;;;2.60;;
17251;SDS011;8742;51.716;8.790;2023-07-29T03:23:42;2.50;;;2.27;;
17251;SDS011;8742;51.716;8.790;2023-07-29T03:26:09;3.00;;;2.50;;
17251;SDS011;8742;51.716;8.790;2023-07-29T03:28:37;3.00;;;2.67;;
17251;SDS011;8742;51.716;8.790;2023-07-29T03:31:05;7.03;;;2.77;;
17251;SDS011;8742;51.716;8.790;2023-07-29T03:33:32;4.57;;;2.83;;
17251;SDS011;8742;51.716;8.790;2023-07-29T03:35:59;8.37;;;3.13;;
17251;SDS011;8742;51.716;8.790;2023-07-29T03:38:26;3.97;;;2.73;;
17251;SDS011;8742;51.716;8.790;2023-07-29T03:40:54;4.90;;;2.80;;
17251;SDS011;8742;51.716;8.790;2023-07-29T03:43:21;7.43;;;2.70;;
17251;SDS011;8742;51.716;8.790;2023-07-29T03:45:48;4.50;;;3.03;;
17251;SDS011;8742;51.716;8.790;2023-07-29T03:48:15;7.00;;;3.10;;
17251;SDS011;8742;51.716;8.790;2023-07-29T03:50:42;3.20;;;2.67;;
17251;SDS011;8742;51.716;8.790;2023-07-29T03:53:09;4.13;;;2.93;;
17251;SDS011;8742;51.716;8.790;2023-07-29T03:55:36;3.53;;;2.57;;
17251;SDS011;8742;51.716;8.790;2023-07-29T03:58:04;8.00;;;2.90;;
17251;SDS011;8742;51.716;8.790;2023-07-29T04:00:31;6.53;;;2.60;;
17251;SDS011;8742;51.716;8.790;2023-07-29T04:02:58;5.83;;;2.70;;
17251;SDS011;8742;51.716;8.790;2023-07-29T04:05:25;5.37;;;2.80;;
17251;SDS011;8742;51.716;8.790;2023-07-29T04:07:52;6.73;;;2.80;;
17251;SDS011;8742;51.716;8.790;2023-07-29T04:10:20;5.40;;;2.70;;
17251;SDS011;8742;51.716;8.790;2023-07-29T04:12:46;4.60;;;2.80;;
17251;SDS011;8742;51.716;8.790;2023-07-29T04:15:15;2.77;;;2.37;;
17251;SDS011;8742;51.716;8.790;2023-07-29T04:17:43;4.57;;;2.70;;
17251;SDS011;8742;51.716;8.790;2023-07-29T04:20:10;3.87;;;2.60;;
17251;SDS011;8742;51.716;8.790;2023-07-29T04:22:37;6.60;;;3.20;;
17251;SDS011;8742;51.716;8.790;2023-07-29T04:25:05;3.90;;;2.60;;
17251;SDS011;8742;51.716;8.790;2023-07-29T04:27:32;4.50;;;2.43;;
17251;SDS011;8742;51.716;8.790;2023-07-29T04:29:59;3.63;;;2.70;;
17251;SDS011;8742;51.716;8.790;2023-07-29T04:32:27;2.80;;;2.60;;
17251;SDS011;8742;51.716;8.790;2023-07-29T04:34:54;3.77;;;2.50;;
17251;SDS011;8742;51.716;8.790;2023-07-29T04:37:21;8.80;;;2.80;;
17251;SDS011;8742;51.716;8.790;2023-07-29T04:39:48;4.23;;;2.23;;
17251;SDS011;8742;51.716;8.790;2023-07-29T04:42:15;3.13;;;2.60;;
17251;SDS011;8742;51.716;8.790;2023-07-29T04:44:42;3.97;;;2.53;;
17251;SDS011;8742;51.716;8.790;2023-07-29T04:47:09;4.47;;;2.50;;
17251;SDS011;8742;51.716;8.790;2023-07-29T04:49:37;3.00;;;2.47;;
17251;SDS011;8742;51.716;8.790;2023-07-29T04:52:04;4.90;;;2.97;;
17251;SDS011;8742;51.716;8.790;2023-07-29T04:54:32;4.63;;;2.50;;
17251;SDS011;8742;51.716;8.790;2023-07-29T04:56:58;2.40;;;2.20;;
17251;SDS011;8742;51.716;8.790;2023-07-29T04:59:25;5.07;;;2.37;;
17251;SDS011;8742;51.716;8.790;2023-07-29T05:01:52;2.67;;;2.47;;
17251;SDS011;8742;51.716;8.790;2023-07-29T05:04:19;2.53;;;2.33;;
17251;SDS011;8742;51.716;8.790;2023-07-29T05:06:47;5.97;;;2.13;;
17251;SDS011;8742;51.716;8.790;2023-07-29T05:09:15;2.67;;;2.20;;
17251;SDS011;8742;51.716;8.790;2023-07-29T05:11:43;3.17;;;2.87;;
17251;SDS011;8742;51.716;8.790;2023-07-29T05:14:11;3.47;;;2.70;;
17251;SDS011;8742;51.716;8.790;2023-07-29T05:16:39;3.73;;;2.20;;
17251;SDS011;8742;51.716;8.790;2023-07-29T05:19:05;2.73;;;2.20;;
17251;SDS011;8742;51.716;8.790;2023-07-29T05:21:32;2.47;;;2.27;;
17251;SDS011;8742;51.716;8.790;2023-07-29T05:24:01;5.23;;;2.27;;
17251;SDS011;8742;51.716;8.790;2023-07-29T05:26:28;4.17;;;2.43;;
17251;SDS011;8742;51.716;8.790;2023-07-29T05:28:54;2.60;;;2.40;;
17251;SDS011;8742;51.716;8.790;2023-07-29T05:31:21;7.33;;;2.23;;
17251;SDS011;8742;51.716;8.790;2023-07-29T05:33:48;4.80;;;2.40;;
17251;SDS011;8742;51.716;8.790;2023-07-29T05:36:15;2.40;;;2.20;;
17251;SDS011;8742;51.716;8.790;2023-07-29T05:38:42;1.70;;;1.60;;
17251;SDS011;8742;51.716;8.790;2023-07-29T05:41:10;2.10;;;1.83;;
17251;SDS011;8742;51.716;8.790;2023-07-29T05:43:37;2.23;;;1.70;;
17251;SDS011;8742;51.716;8.790;2023-07-29T05:46:04;2.43;;;1.87;;
17251;SDS011;8742;51.716;8.790;2023-07-29T05:48:30;2.10;;;1.63;;
17251;SDS011;8742;51.716;8.790;2023-07-29T05:50:57;2.60;;;1.80;;
17251;SDS011;8742;51.716;8.790;2023-07-29T05:53:24;1.83;;;1.50;;
17251;SDS011;8742;51.716;8.790;2023-07-29T05:55:51;2.97;;;1.50;;
17251;SDS011;8742;51.716;8.790;2023-07-29T05:58:19;1.80;;;1.70;;
17251;SDS011;8742;51.716;8.790;2023-07-29T06:00:46;2.30;;;1.50;;
17251;SDS011;8742;51.716;8.790;2023-07-29T06:03:13;1.60;;;1.50;;
17251;SDS011;8742;51.716;8.790;2023-07-29T06:05:40;1.87;;;1.50;;
17251;SDS011;8742;51.716;8.790;2023-07-29T06:08:07;1.70;;;1.60;;
17251;SDS011;8742;51.716;8.790;2023-07-29T06:10:34;2.87;;;1.90;;
17251;SDS011;8742;51.716;8.790;2023-07-29T06:13:01;2.13;;;1.70;;
17251;SDS011;8742;51.716;8.790;2023-07-29T06:15:29;2.03;;;1.83;;
17251;SDS011;8742;51.716;8.790;2023-07-29T06:17:56;3.23;;;1.90;;
17251;SDS011;8742;51.716;8.790;2023-07-29T06:20:23;1.93;;;1.73;;
17251;SDS011;8742;51.716;8.790;2023-07-29T06:22:50;2.50;;;1.47;;
17251;SDS011;8742;51.716;8.790;2023-07-29T06:25:16;2.90;;;1.60;;
17251;SDS011;8742;51.716;8.790;2023-07-29T06:27:43;1.87;;;1.73;;
17251;SDS011;8742;51.716;8.790;2023-07-29T06:30:10;1.90;;;1.70;;
17251;SDS011;8742;51.716;8.790;2023-07-29T06:32:38;2.87;;;2.00;;
17251;SDS011;8742;51.716;8.790;2023-07-29T06:35:05;2.83;;;1.77;;
17251;SDS011;8742;51.716;8.790;2023-07-29T06:37:33;2.30;;;2.10;;
17251;SDS011;8742;51.716;8.790;2023-07-29T06:39:59;1.90;;;1.80;;
17251;SDS011;8742;51.716;8.790;2023-07-29T06:42:26;2.00;;;1.77;;
17251;SDS011;8742;51.716;8.790;2023-07-29T06:44:53;2.20;;;2.00;;
17251;SDS011;8742;51.716;8.790;2023-07-29T06:47:20;2.70;;;1.83;;
17251;SDS011;8742;51.716;8.790;2023-07-29T06:49:48;1.80;;;1.70;;
17251;SDS011;8742;51.716;8.790;2023-07-29T06:52:15;3.57;;;2.13;;
17251;SDS011;8742;51.716;8.790;2023-07-29T06:54:42;2.67;;;1.93;;
17251;SDS011;8742;51.716;8.790;2023-07-29T06:57:08;1.90;;;1.80;;
17251;SDS011;8742;51.716;8.790;2023-07-29T06:59:35;4.10;;;1.90;;
17251;SDS011;8742;51.716;8.790;2023-07-29T07:02:02;1.77;;;1.57;;
17251;SDS011;8742;51.716;8.790;2023-07-29T07:04:29;4.23;;;1.70;;
17251;SDS011;8742;51.716;8.790;2023-07-29T07:06:58;1.70;;;1.60;;
17251;SDS011;8742;51.716;8.790;2023-07-29T07:09:25;2.37;;;2.17;;
17251;SDS011;8742;51.716;8.790;2023-07-29T07:11:52;2.13;;;2.00;;
17251;SDS011;8742;51.716;8.790;2023-07-29T07:14:19;1.93;;;1.83;;
17251;SDS011;8742;51.716;8.790;2023-07-29T07:16:46;2.87;;;2.17;;
17251;SDS011;8742;51.716;8.790;2023-07-29T07:19:13;2.77;;;2.00;;
17251;SDS011;8742;51.716;8.790;2023-07-29T07:21:39;3.40;;;2.33;;
17251;SDS011;8742;51.716;8.790;2023-07-29T07:24:08;5.13;;;2.40;;
17251;SDS011;8742;51.716;8.790;2023-07-29T07:26:34;3.30;;;2.90;;
17251;SDS011;8742;51.716;8.790;2023-07-29T07:29:01;3.33;;;2.90;;
17251;SDS011;8742;51.716;8.790;2023-07-29T07:31:28;3.33;;;3.03;;
17251;SDS011;8742;51.716;8.790;2023-07-29T07:33:59;3.17;;;2.97;;
17251;SDS011;8742;51.716;8.790;2023-07-29T07:36:27;5.03;;;3.80;;
17251;SDS011;8742;51.716;8.790;2023-07-29T07:38:54;4.80;;;4.40;;
17251;SDS011;8742;51.716;8.790;2023-07-29T07:41:22;5.13;;;4.50;;
17251;SDS011;8742;51.716;8.790;2023-07-29T07:43:49;6.43;;;4.80;;
17251;SDS011;8742;51.716;8.790;2023-07-29T07:46:15;9.23;;;6.60;;
17251;SDS011;8742;51.716;8.790;2023-07-29T07:48:42;11.50;;;7.43;;
17251;SDS011;8742;51.716;8.790;2023-07-29T07:51:09;9.57;;;8.13;;
17251;SDS011;8742;51.716;8.790;2023-07-29T07:53:37;11.80;;;8.90;;
17251;SDS011;8742;51.716;8.790;2023-07-29T07:56:08;13.40;;;8.47;;
17251;SDS011;8742;51.716;8.790;2023-07-29T07:58:36;10.53;;;8.83;;
17251;SDS011;8742;51.716;8.790;2023-07-29T08:01:05;12.83;;;9.10;;
17251;SDS011;8742;51.716;8.790;2023-07-29T08:03:33;12.17;;;8.93;;
17251;SDS011;8742;51.716;8.790;2023-07-29T08:06:00;11.63;;;9.40;;
17251;SDS011;8742;51.716;8.790;2023-07-29T08:08:27;12.47;;;8.80;;
17251;SDS011;8742;51.716;8.790;2023-07-29T08:10:54;11.00;;;8.27;;
17251;SDS011;8742;51.716;8.790;2023-07-29T08:13:22;10.70;;;8.33;;
17251;SDS011;8742;51.716;8.790;2023-07-29T08:15:51;9.60;;;8.30;;
17251;SDS011;8742;51.716;8.790;2023-07-29T08:18:19;11.50;;;8.90;;
17251;SDS011;8742;51.716;8.790;2023-07-29T08:20:53;9.87;;;8.10;;
17251;SDS011;8742;51.716;8.790;2023-07-29T08:23:23;10.53;;;7.83;;
17251;SDS011;8742;51.716;8.790;2023-07-29T08:25:51;10.50;;;6.63;;
17251;SDS011;8742;51.716;8.790;2023-07-29T08:28:21;10.87;;;7.43;;
17251;SDS011;8742;51.716;8.790;2023-07-29T08:30:48;7.13;;;6.43;;
17251;SDS011;8742;51.716;8.790;2023-07-29T08:33:16;13.37;;;6.43;;
17251;SDS011;8742;51.716;8.790;2023-07-29T08:35:43;7.50;;;6.50;;
17251;SDS011;8742;51.716;8.790;2023-07-29T08:38:09;10.07;;;6.43;;
17251;SDS011;8742;51.716;8.790;2023-07-29T08:40:37;7.87;;;6.23;;
17251;SDS011;8742;51.716;8.790;2023-07-29T08:43:08;7.57;;;6.40;;
17251;SDS011;8742;51.716;8.790;2023-07-29T08:45:36;8.60;;;6.57;;
17251;SDS011;8742;51.716;8.790;2023-07-29T08:48:07;7.33;;;6.37;;
17251;SDS011;8742;51.716;8.790;2023-07-29T08:50:37;10.23;;;7.10;;
17251;SDS011;8742;51.716;8.790;2023-07-29T08:53:04;12.63;;;6.83;;
17251;SDS011;8742;51.716;8.790;2023-07-29T08:55:31;8.87;;;7.10;;
17251;SDS011;8742;51.716;8.790;2023-07-29T08:57:59;8.10;;;6.53;;
17251;SDS011;8742;51.716;8.790;2023-07-29T09:00:26;7.90;;;6.90;;
17251;SDS011;8742;51.716;8.790;2023-07-29T09:02:53;7.57;;;6.87;;
17251;SDS011;8742;51.716;8.790;2023-07-29T09:05:23;10.97;;;6.93;;
17251;SDS011;8742;51.716;8.790;2023-07-29T09:07:51;7.77;;;6.87;;
17251;SDS011;8742;51.716;8.790;2023-07-29T09:10:21;8.93;;;6.97;;
17251;SDS011;8742;51.716;8.790;2023-07-29T09:12:48;11.53;;;7.10;;
17251;SDS011;8742;51.716;8.790;2023-07-29T09:15:25;9.50;;;7.63;;
17251;SDS011;8742;51.716;8.790;2023-07-29T09:17:53;11.43;;;7.57;;
17251;SDS011;8742;51.716;8.790;2023-07-29T09:20:23;7.80;;;6.30;;
17251;SDS011;8742;51.716;8.790;2023-07-29T09:22:52;8.47;;;6.70;;
17251;SDS011;8742;51.716;8.790;2023-07-29T09:25:24;9.30;;;6.47;;
17251;SDS011;8742;51.716;8.790;2023-07-29T09:27:51;9.60;;;6.27;;
17251;SDS011;8742;51.716;8.790;2023-07-29T09:30:18;8.70;;;5.17;;
17251;SDS011;8742;51.716;8.790;2023-07-29T09:32:44;4.57;;;4.17;;
17251;SDS011;8742;51.716;8.790;2023-07-29T09:35:11;4.90;;;3.90;;
17251;SDS011;8742;51.716;8.790;2023-07-29T09:37:39;4.53;;;3.40;;
17251;SDS011;8742;51.716;8.790;2023-07-29T09:40:12;6.20;;;3.87;;
17251;SDS011;8742;51.716;8.790;2023-07-29T09:42:47;4.53;;;3.87;;
17251;SDS011;8742;51.716;8.790;2023-07-29T09:45:19;3.93;;;3.47;;
17251;SDS011;8742;51.716;8.790;2023-07-29T09:47:46;4.33;;;3.43;;
17251;SDS011;8742;51.716;8.790;2023-07-29T09:50:14;5.53;;;3.10;;
17251;SDS011;8742;51.716;8.790;2023-07-29T09:52:41;3.10;;;2.83;;
17251;SDS011;8742;51.716;8.790;2023-07-29T09:55:10;3.30;;;3.00;;
17251;SDS011;8742;51.716;8.790;2023-07-29T09:57:39;2.50;;;2.30;;
17251;SDS011;8742;51.716;8.790;2023-07-29T10:00:06;2.75;;;2.55;;
17251;SDS011;8742;51.716;8.790;2023-07-29T10:02:37;3.97;;;2.92;;
17251;SDS011;8742;51.716;8.790;2023-07-29T10:05:05;2.60;;;2.40;;
17251;SDS011;8742;51.716;8.790;2023-07-29T10:07:33;2.42;;;2.30;;
17251;SDS011;8742;51.716;8.790;2023-07-29T10:10:02;3.15;;;2.80;;
17251;SDS011;8742;51.716;8.790;2023-07-29T10:12:32;2.85;;;2.30;;
17251;SDS011;8742;51.716;8.790;2023-07-29T10:15:01;3.08;;;2.28;;
17251;SDS011;8742;51.716;8.790;2023-07-29T10:17:30;2.35;;;1.85;;
17251;SDS011;8742;51.716;8.790;2023-07-29T10:19:58;1.60;;;1.50;;
17251;SDS011;8742;51.716;8.790;2023-07-29T10:22:27;1.35;;;1.23;;
17251;SDS011;8742;51.716;8.790;2023-07-29T10:24:59;1.58;;;1.48;;
17251;SDS011;8742;51.716;8.790;2023-07-29T10:27:31;1.92;;;1.73;;
17251;SDS011;8742;51.716;8.790;2023-07-29T10:30:07;1.40;;;1.30;;
17251;SDS011;8742;51.716;8.790;2023-07-29T10:32:34;1.73;;;1.20;;
17251;SDS011;8742;51.716;8.790;2023-07-29T10:35:01;1.58;;;1.02;;
17251;SDS011;8742;51.716;8.790;2023-07-29T10:37:29;2.25;;;1.08;;
17251;SDS011;8742;51.716;8.790;2023-07-29T10:39:56;1.73;;;1.02;;
17251;SDS011;8742;51.716;8.790;2023-07-29T10:42:23;1.40;;;1.30;;
17251;SDS011;8742;51.716;8.790;2023-07-29T10:44:51;1.40;;;1.30;;
17251;SDS011;8742;51.716;8.790;2023-07-29T10:47:19;1.13;;;1.05;;
17251;SDS011;8742;51.716;8.790;2023-07-29T10:49:50;1.30;;;1.00;;
17251;SDS011;8742;51.716;8.790;2023-07-29T10:52:28;1.10;;;0.80;;
17251;SDS011;8742;51.716;8.790;2023-07-29T10:55:22;2.95;;;1.10;;
17251;SDS011;8742;51.716;8.790;2023-07-29T10:58:11;1.33;;;1.23;;
17251;SDS011;8742;51.716;8.790;2023-07-29T11:00:42;0.90;;;0.90;;
17251;SDS011;8742;51.716;8.790;2023-07-29T11:03:09;1.58;;;1.30;;
17251;SDS011;8742;51.716;8.790;2023-07-29T11:05:41;1.52;;;1.10;;
17251;SDS011;8742;51.716;8.790;2023-07-29T11:08:16;1.60;;;1.17;;
17251;SDS011;8742;51.716;8.790;2023-07-29T11:10:44;1.02;;;1.02;;
17251;SDS011;8742;51.716;8.790;2023-07-29T11:13:23;1.85;;;1.20;;
17251;SDS011;8742;51.716;8.790;2023-07-29T11:15:54;1.02;;;1.02;;
17251;SDS011;8742;51.716;8.790;2023-07-29T11:18:24;2.63;;;1.15;;
17251;SDS011;8742;51.716;8.790;2023-07-29T11:20:53;1.25;;;1.15;;
17251;SDS011;8742;51.716;8.790;2023-07-29T11:23:20;1.20;;;1.20;;
17251;SDS011;8742;51.716;8.790;2023-07-29T11:25:54;4.03;;;1.25;;
17251;SDS011;8742;51.716;8.790;2023-07-29T11:28:21;1.50;;;1.38;;
17251;SDS011;8742;51.716;8.790;2023-07-29T11:30:49;1.38;;;0.98;;
17251;SDS011;8742;51.716;8.790;2023-07-29T11:33:18;1.02;;;1.02;;
17251;SDS011;8742;51.716;8.790;2023-07-29T11:35:46;1.00;;;0.90;;
17251;SDS011;8742;51.716;8.790;2023-07-29T11:38:14;1.45;;;1.30;;
17251;SDS011;8742;51.716;8.790;2023-07-29T11:40:41;0.98;;;0.98;;
17251;SDS011;8742;51.716;8.790;2023-07-29T11:43:09;0.90;;;0.88;;
17251;SDS011;8742;51.716;8.790;2023-07-29T11:45:43;1.10;;;1.00;;
17251;SDS011;8742;51.716;8.790;2023-07-29T11:48:10;0.85;;;0.85;;
17251;SDS011;8742;51.716;8.790;2023-07-29T11:50:39;2.00;;;1.23;;
17251;SDS011;8742;51.716;8.790;2023-07-29T11:53:06;2.53;;;0.90;;
17251;SDS011;8742;51.716;8.790;2023-07-29T11:55:33;1.17;;;1.00;;
17251;SDS011;8742;51.716;8.790;2023-07-29T11:58:00;0.82;;;0.82;;
17251;SDS011;8742;51.716;8.790;2023-07-29T12:00:28;5.82;;;1.27;;
17251;SDS011;8742;51.716;8.790;2023-07-29T12:02:55;1.08;;;1.02;;
17251;SDS011;8742;51.716;8.790;2023-07-29T12:05:22;1.48;;;1.30;;
17251;SDS011;8742;51.716;8.790;2023-07-29T12:07:51;2.67;;;1.00;;
17251;SDS011;8742;51.716;8.790;2023-07-29T12:10:18;1.10;;;1.10;;
17251;SDS011;8742;51.716;8.790;2023-07-29T12:12:47;1.08;;;1.00;;
17251;SDS011;8742;51.716;8.790;2023-07-29T12:15:22;4.72;;;1.27;;
17251;SDS011;8742;51.716;8.790;2023-07-29T12:17:52;1.13;;;1.13;;
17251;SDS011;8742;51.716;8.790;2023-07-29T12:20:21;2.28;;;1.20;;
17251;SDS011;8742;51.716;8.790;2023-07-29T12:22:52;1.38;;;1.27;;
17251;SDS011;8742;51.716;8.790;2023-07-29T12:25:20;1.30;;;1.17;;
17251;SDS011;8742;51.716;8.790;2023-07-29T12:27:47;2.13;;;1.20;;
17251;SDS011;8742;51.716;8.790;2023-07-29T12:30:14;1.10;;;1.10;;
17251;SDS011;8742;51.716;8.790;2023-07-29T12:32:45;1.92;;;1.02;;
17251;SDS011;8742;51.716;8.790;2023-07-29T12:35:13;1.60;;;1.45;;
17251;SDS011;8742;51.716;8.790;2023-07-29T12:37:40;1.30;;;1.20;;
17251;SDS011;8742;51.716;8.790;2023-07-29T12:40:19;3.88;;;1.27;;
17251;SDS011;8742;51.716;8.790;2023-07-29T12:42:48;1.35;;;1.30;;
17251;SDS011;8742;51.716;8.790;2023-07-29T12:45:15;1.35;;;1.30;;
17251;SDS011;8742;51.716;8.790;2023-07-29T12:47:42;1.63;;;1.50;;
17251;SDS011;8742;51.716;8.790;2023-07-29T12:50:09;1.58;;;1.48;;
17251;SDS011;8742;51.716;8.790;2023-07-29T12:52:36;2.42;;;1.70;;
17251;SDS011;8742;51.716;8.790;2023-07-29T12:55:03;1.73;;;1.63;;
17251;SDS011;8742;51.716;8.790;2023-07-29T12:57:32;1.70;;;1.60;;
17251;SDS011;8742;51.716;8.790;2023-07-29T12:59:59;1.63;;;1.42;;
17251;SDS011;8742;51.716;8.790;2023-07-29T13:02:26;1.75;;;1.65;;
17251;SDS011;8742;51.716;8.790;2023-07-29T13:04:53;2.53;;;1.65;;
17251;SDS011;8742;51.716;8.790;2023-07-29T13:07:19;2.53;;;1.42;;
17251;SDS011;8742;51.716;8.790;2023-07-29T13:09:46;1.00;;;1.00;;
17251;SDS011;8742;51.716;8.790;2023-07-29T13:12:13;1.88;;;1.50;;
17251;SDS011;8742;51.716;8.790;2023-07-29T13:14:41;2.90;;;1.20;;
17251;SDS011;8742;51.716;8.790;2023-07-29T13:17:08;1.50;;;1.40;;
17251;SDS011;8742;51.716;8.790;2023-07-29T13:19:35;1.80;;;1.60;;
17251;SDS011;8742;51.716;8.790;2023-07-29T13:22:02;2.83;;;1.55;;
17251;SDS011;8742;51.716;8.790;2023-07-29T13:24:29;2.30;;;1.42;;
17251;SDS011;8742;51.716;8.790;2023-07-29T13:26:57;1.40;;;1.30;;
17251;SDS011;8742;51.716;8.790;2023-07-29T13:29:24;1.65;;;1.55;;
17251;SDS011;8742;51.716;8.790;2023-07-29T13:31:52;2.25;;;1.48;;
17251;SDS011;8742;51.716;8.790;2023-07-29T13:34:19;1.80;;;1.70;;
17251;SDS011;8742;51.716;8.790;2023-07-29T13:36:46;1.80;;;1.70;;
17251;SDS011;8742;51.716;8.790;2023-07-29T13:39:13;2.88;;;1.48;;
17251;SDS011;8742;51.716;8.790;2023-07-29T13:41:41;1.92;;;1.73;;
17251;SDS011;8742;51.716;8.790;2023-07-29T13:44:08;1.92;;;1.63;;
17251;SDS011;8742;51.716;8.790;2023-07-29T13:46:35;4.07;;;1.63;;
17251;SDS011;8742;51.716;8.790;2023-07-29T13:49:03;1.73;;;1.63;;
17251;SDS011;8742;51.716;8.790;2023-07-29T13:51:30;1.13;;;1.13;;
17251;SDS011;8742;51.716;8.790;2023-07-29T13:53:57;3.65;;;1.50;;
17251;SDS011;8742;51.716;8.790;2023-07-29T13:56:24;1.50;;;1.40;;
17251;SDS011;8742;51.716;8.790;2023-07-29T13:58:51;2.47;;;1.40;;
17251;SDS011;8742;51.716;8.790;2023-07-29T14:01:18;2.28;;;1.52;;
17251;SDS011;8742;51.716;8.790;2023-07-29T14:03:44;1.50;;;1.40;;
17251;SDS011;8742;51.716;8.790;2023-07-29T14:06:21;1.60;;;1.50;;
17251;SDS011;8742;51.716;8.790;2023-07-29T14:08:48;1.38;;;1.30;;
17251;SDS011;8742;51.716;8.790;2023-07-29T14:11:15;1.73;;;1.50;;
17251;SDS011;8742;51.716;8.790;2023-07-29T14:13:41;1.63;;;1.33;;
17251;SDS011;8742;51.716;8.790;2023-07-29T14:16:08;5.20;;;1.75;;
17251;SDS011;8742;51.716;8.790;2023-07-29T14:18:35;2.35;;;2.15;;
17251;SDS011;8742;51.716;8.790;2023-07-29T14:21:02;1.85;;;1.70;;
17251;SDS011;8742;51.716;8.790;2023-07-29T14:23:30;1.55;;;1.45;;
17251;SDS011;8742;51.716;8.790;2023-07-29T14:25:57;3.00;;;2.78;;
17251;SDS011;8742;51.716;8.790;2023-07-29T14:28:24;5.75;;;4.60;;
17251;SDS011;8742;51.716;8.790;2023-07-29T14:30:51;2.80;;;2.50;;
17251;SDS011;8742;51.716;8.790;2023-07-29T14:33:18;2.55;;;2.05;;
17251;SDS011;8742;51.716;8.790;2023-07-29T14:35:45;1.60;;;1.50;;
17251;SDS011;8742;51.716;8.790;2023-07-29T14:38:10;3.42;;;1.65;;
17251;SDS011;8742;51.716;8.790;2023-07-29T14:40:39;1.77;;;1.67;;
17251;SDS011;8742;51.716;8.790;2023-07-29T14:43:06;1.83;;;1.45;;
17251;SDS011;8742;51.716;8.790;2023-07-29T14:45:32;3.10;;;1.85;;
17251;SDS011;8742;51.716;8.790;2023-07-29T14:47:59;2.40;;;2.17;;
17251;SDS011;8742;51.716;8.790;2023-07-29T14:50:26;1.27;;;1.25;;
17251;SDS011;8742;51.716;8.790;2023-07-29T14:52:53;2.70;;;1.58;;
17251;SDS011;8742;51.716;8.790;2023-07-29T14:55:20;1.70;;;1.60;;
17251;SDS011;8742;51.716;8.790;2023-07-29T14:57:48;1.52;;;1.38;;
17251;SDS011;8742;51.716;8.790;2023-07-29T15:00:15;2.45;;;1.50;;
17251;SDS011;8742;51.716;8.790;2023-07-29T15:02:42;2.35;;;1.67;;
17251;SDS011;8742;51.716;8.790;2023-07-29T15:05:09;3.95;;;1.45;;